Time;durP1;ratioP1;P1;durP2;ratioP2;P2;SDS_P1;SDS_P2;PMS_P1;PMS_P2;Temp;Humidity;BMP_temperature;BMP_pressure;BME280_temperature;BME280_humidity;BME280_pressure;Samples;Min_cycle;Max_cycle;Signal;HPM_P1;HPM_P2
2022/11/26 00:01:17;;;;;;;13.37;6.73;;;3.20;99.90;;;;;;5025111;28;21426;-59
2022/11/26 00:03:44;;;;;;;14.10;6.97;;;3.20;99.90;;;;;;5027850;28;20444;-59
2022/11/26 00:06:23;;;;;;;13.53;6.33;;;3.20;99.90;;;;;;5025499;28;20447;-60
2022/11/26 00:08:49;;;;;;;14.60;6.77;;;3.20;99.90;;;;;;5029919;28;20473;-59
2022/11/26 00:11:15;;;;;;;11.70;7.20;;;3.20;99.90;;;;;;5028241;28;20868;-59
2022/11/26 00:13:41;;;;;;;80.20;32.23;;;3.10;99.90;;;;;;5029039;28;20176;-59
2022/11/26 00:16:13;;;;;;;28.40;11.10;;;3.00;99.90;;;;;;5024411;28;20451;-61
2022/11/26 00:18:40;;;;;;;13.00;6.00;;;3.00;99.90;;;;;;5027299;28;20226;-60
2022/11/26 00:21:19;;;;;;;9.87;5.47;;;2.90;99.90;;;;;;5014949;28;20465;-59
2022/11/26 00:23:45;;;;;;;8.80;4.70;;;2.80;99.90;;;;;;5023865;28;20426;-61
2022/11/26 00:26:17;;;;;;;44.90;7.97;;;2.80;99.90;;;;;;5008942;28;20454;-60
2022/11/26 00:28:48;;;;;;;12.07;6.47;;;2.70;99.90;;;;;;5027998;28;20194;-60
2022/11/26 00:31:15;;;;;;;10.33;5.73;;;2.60;99.90;;;;;;5028935;28;20429;-60
2022/11/26 00:33:41;;;;;;;7.30;4.30;;;2.60;99.90;;;;;;5023886;28;20440;-60
2022/11/26 00:36:17;;;;;;;14.20;5.80;;;2.50;99.90;;;;;;5026752;28;22241;-60
2022/11/26 00:38:46;;;;;;;113.93;11.43;;;2.50;99.90;;;;;;5025865;28;20423;-59
2022/11/26 00:41:23;;;;;;;119.77;12.60;;;2.50;99.90;;;;;;5024981;28;20427;-59
2022/11/26 00:43:50;;;;;;;24.63;9.57;;;2.50;99.90;;;;;;5027853;28;20429;-60
2022/11/26 00:46:18;;;;;;;55.37;15.17;;;2.50;99.90;;;;;;5026462;28;20465;-60
2022/11/26 00:48:44;;;;;;;46.87;12.50;;;2.60;99.90;;;;;;5026269;28;20418;-60
2022/11/26 00:51:19;;;;;;;24.80;9.60;;;2.60;99.90;;;;;;5007477;28;20427;-60
2022/11/26 00:53:46;;;;;;;135.00;33.47;;;2.60;99.90;;;;;;5023602;28;20453;-60
2022/11/26 00:56:18;;;;;;;157.73;15.80;;;2.60;99.90;;;;;;5028114;28;20483;-60
2022/11/26 00:58:45;;;;;;;40.17;12.80;;;2.70;99.90;;;;;;5023842;28;20456;-60
2022/11/26 01:01:13;;;;;;;42.33;12.10;;;2.70;99.90;;;;;;5027109;28;20426;-60
2022/11/26 01:03:41;;;;;;;120.07;13.47;;;2.70;99.90;;;;;;5028212;28;20730;-60
2022/11/26 01:06:18;;;;;;;98.87;11.07;;;2.70;99.90;;;;;;5023897;28;20449;-60
2022/11/26 01:08:44;;;;;;;66.67;10.03;;;2.70;99.90;;;;;;5024620;28;20421;-59
2022/11/26 01:11:16;;;;;;;70.93;9.47;;;2.70;99.90;;;;;;5024352;28;20429;-60
2022/11/26 01:13:44;;;;;;;108.50;11.07;;;2.80;99.90;;;;;;5027282;28;20433;-58
2022/11/26 01:16:34;;;;;;;88.63;11.37;;;2.70;99.90;;;;;;5018787;28;20439;-60
2022/11/26 01:19:01;;;;;;;16.67;7.50;;;2.70;99.90;;;;;;5025244;28;20426;-60
2022/11/26 01:21:29;;;;;;;19.53;8.30;;;2.70;99.90;;;;;;5022954;28;20502;-60
2022/11/26 01:23:55;;;;;;;45.73;11.00;;;2.80;99.90;;;;;;5026237;28;21191;-60
2022/11/26 01:26:27;;;;;;;28.17;7.30;;;2.70;99.90;;;;;;5009142;28;20449;-60
2022/11/26 01:28:54;;;;;;;22.73;7.47;;;2.70;99.90;;;;;;5026068;28;20445;-59
2022/11/26 01:31:22;;;;;;;12.13;5.87;;;2.70;99.90;;;;;;5024916;28;20418;-59
2022/11/26 01:33:48;;;;;;;15.10;6.40;;;2.60;99.90;;;;;;5027141;28;20510;-60
2022/11/26 01:36:22;;;;;;;15.90;5.97;;;2.60;99.90;;;;;;5028417;28;20528;-58
2022/11/26 01:38:48;;;;;;;11.83;6.20;;;2.60;99.90;;;;;;5023517;28;20978;-59
2022/11/26 01:41:44;;;;;;;12.73;5.80;;;2.50;99.90;;;;;;5021996;28;20423;-59
2022/11/26 01:44:20;;;;;;;10.63;6.00;;;2.50;99.90;;;;;;5023439;28;20206;-60
2022/11/26 01:46:47;;;;;;;60.57;7.43;;;2.50;99.90;;;;;;5025317;28;20896;-60
2022/11/26 01:49:40;;;;;;;55.73;7.83;;;2.50;99.90;;;;;;5022290;28;21081;-60
2022/11/26 01:52:12;;;;;;;100.10;8.37;;;2.40;99.90;;;;;;5019781;28;20945;-59
2022/11/26 01:54:41;;;;;;;113.00;9.53;;;2.40;99.90;;;;;;5018704;28;20489;-60
2022/11/26 01:57:17;;;;;;;119.73;9.53;;;2.40;99.90;;;;;;5026366;28;20439;-60
2022/11/26 01:59:49;;;;;;;103.60;8.83;;;2.40;99.90;;;;;;5023523;28;20442;-60
2022/11/26 02:02:15;;;;;;;113.50;8.50;;;2.30;99.90;;;;;;5021849;28;20453;-60
2022/11/26 02:04:52;;;;;;;27.03;6.77;;;2.30;99.90;;;;;;5023745;28;20531;-60
2022/11/26 02:07:18;;;;;;;33.50;7.10;;;2.40;99.90;;;;;;5025113;28;20509;-60
2022/11/26 02:09:44;;;;;;;47.00;7.63;;;2.40;99.90;;;;;;5026093;28;20575;-60
2022/11/26 02:12:09;;;;;;;99.03;8.47;;;2.40;99.90;;;;;;5024156;28;20167;-59
2022/11/26 02:14:39;;;;;;;78.97;8.90;;;2.40;99.90;;;;;;5023862;28;20474;-61
2022/11/26 02:17:20;;;;;;;14.57;5.13;;;2.50;99.90;;;;;;5025883;28;20168;-60
2022/11/26 02:20:23;;;;;;;26.37;5.50;;;2.50;99.90;;;;;;5026097;28;20433;-60
2022/11/26 02:22:48;;;;;;;18.40;4.90;;;2.40;99.90;;;;;;5024379;28;20516;-60
2022/11/26 02:25:43;;;;;;;35.67;5.60;;;2.40;99.90;;;;;;5023158;28;21085;-61
2022/11/26 02:28:33;;;;;;;15.87;4.43;;;2.40;99.90;;;;;;4990104;28;20182;-61
2022/11/26 02:31:28;;;;;;;16.20;5.07;;;2.30;99.90;;;;;;5023944;28;20427;-60
2022/11/26 02:34:10;;;;;;;37.30;6.33;;;2.30;99.90;;;;;;5024995;28;20432;-60
2022/11/26 02:36:50;;;;;;;45.37;5.40;;;2.30;99.90;;;;;;5021584;28;20502;-58
2022/11/26 02:39:18;;;;;;;56.13;6.20;;;2.30;99.90;;;;;;5015822;28;20777;-60
2022/11/26 02:41:47;;;;;;;40.67;5.40;;;2.30;99.90;;;;;;5020166;28;20428;-60
2022/11/26 02:44:14;;;;;;;24.13;5.60;;;2.30;99.90;;;;;;5019299;28;20560;-60
2022/11/26 02:46:42;;;;;;;18.47;4.90;;;2.30;99.90;;;;;;5019206;28;20461;-60
2022/11/26 02:49:13;;;;;;;20.70;5.20;;;2.40;99.90;;;;;;5023106;28;20437;-60
2022/11/26 02:51:39;;;;;;;14.03;5.77;;;2.40;99.90;;;;;;5006580;28;20796;-60
2022/11/26 02:54:06;;;;;;;7.07;4.47;;;2.40;99.90;;;;;;5022670;28;20833;-60
2022/11/26 02:56:33;;;;;;;8.90;4.60;;;2.40;99.90;;;;;;5021115;28;20454;-60
2022/11/26 02:58:59;;;;;;;9.47;4.07;;;2.40;99.90;;;;;;5018660;28;20434;-59
2022/11/26 03:02:00;;;;;;;8.20;4.90;;;2.40;99.90;;;;;;5026180;28;20441;-60
2022/11/26 03:04:32;;;;;;;17.03;5.20;;;2.40;99.90;;;;;;5019667;28;20556;-60
2022/11/26 03:07:02;;;;;;;11.93;4.57;;;2.30;99.90;;;;;;5024769;28;20423;-59
2022/11/26 03:09:47;;;;;;;6.73;4.40;;;2.30;99.90;;;;;;5018364;28;20483;-60
2022/11/26 03:12:13;;;;;;;6.73;4.70;;;2.30;99.90;;;;;;5003922;28;20431;-60
2022/11/26 03:14:39;;;;;;;6.80;4.47;;;2.30;99.90;;;;;;5024753;28;20494;-61
2022/11/26 03:17:04;;;;;;;12.90;4.40;;;2.30;99.90;;;;;;5020394;28;20230;-62
2022/11/26 03:19:30;;;;;;;6.23;4.10;;;2.30;99.90;;;;;;5020854;28;20224;-61
2022/11/26 03:21:56;;;;;;;7.03;4.30;;;2.30;99.90;;;;;;5022802;28;20194;-60
2022/11/26 03:24:21;;;;;;;6.87;4.73;;;2.20;99.90;;;;;;5020719;28;20199;-61
2022/11/26 03:26:47;;;;;;;9.70;5.20;;;2.20;99.90;;;;;;5021793;28;20196;-60
2022/11/26 03:29:12;;;;;;;6.90;3.97;;;2.20;99.90;;;;;;5023054;28;20266;-61
2022/11/26 03:31:38;;;;;;;6.70;4.70;;;2.20;99.90;;;;;;5015260;28;20179;-59
2022/11/26 03:34:04;;;;;;;7.63;4.13;;;2.20;99.90;;;;;;5023031;28;20183;-58
2022/11/26 03:36:29;;;;;;;7.30;4.53;;;2.20;99.90;;;;;;5022556;28;20202;-60
2022/11/26 03:38:55;;;;;;;7.57;5.10;;;2.20;99.90;;;;;;5024244;28;20659;-60
2022/11/26 03:41:20;;;;;;;10.90;4.70;;;2.20;99.90;;;;;;5018699;28;20183;-60
2022/11/26 03:43:46;;;;;;;8.37;4.50;;;2.30;99.90;;;;;;5025206;28;20199;-60
2022/11/26 03:46:12;;;;;;;9.43;3.97;;;2.30;99.90;;;;;;5025177;28;20317;-60
2022/11/26 03:48:37;;;;;;;5.70;3.77;;;2.20;99.90;;;;;;5029879;28;20441;-60
2022/11/26 03:51:03;;;;;;;6.77;3.53;;;2.20;99.90;;;;;;5005115;28;20589;-60
2022/11/26 03:53:29;;;;;;;5.23;3.80;;;2.20;99.90;;;;;;5014929;28;20180;-60
2022/11/26 03:55:54;;;;;;;4.63;3.60;;;2.20;99.90;;;;;;5024762;28;20680;-60
2022/11/26 03:58:20;;;;;;;6.73;4.70;;;2.20;99.90;;;;;;5025993;28;20186;-60
2022/11/26 04:00:45;;;;;;;6.07;4.17;;;2.20;99.90;;;;;;5020849;28;20183;-60
2022/11/26 04:03:11;;;;;;;5.33;3.60;;;2.20;99.90;;;;;;5020379;28;20569;-60
2022/11/26 04:05:37;;;;;;;6.00;4.17;;;2.20;99.90;;;;;;5023145;28;20260;-60
2022/11/26 04:08:02;;;;;;;6.93;4.00;;;2.20;99.90;;;;;;5025208;28;20200;-60
2022/11/26 04:10:28;;;;;;;6.00;4.10;;;2.30;99.90;;;;;;5025202;28;20261;-60
2022/11/26 04:12:54;;;;;;;4.97;4.37;;;2.30;99.90;;;;;;5024662;28;20176;-60
2022/11/26 04:15:19;;;;;;;21.70;10.83;;;2.40;99.90;;;;;;5020841;28;20210;-60
2022/11/26 04:17:45;;;;;;;12.77;7.90;;;2.40;99.90;;;;;;5024206;28;20192;-60
2022/11/26 04:20:11;;;;;;;19.80;11.17;;;2.40;99.90;;;;;;5023317;28;20768;-60
2022/11/26 04:22:36;;;;;;;12.30;8.57;;;2.40;99.90;;;;;;5026787;28;20241;-60
2022/11/26 04:25:02;;;;;;;10.80;7.00;;;2.40;99.90;;;;;;5027190;28;20475;-60
2022/11/26 04:27:28;;;;;;;12.73;5.60;;;2.50;99.90;;;;;;5026500;28;20594;-60
2022/11/26 04:29:53;;;;;;;5.90;3.70;;;2.50;99.90;;;;;;5014605;28;20433;-60
2022/11/26 04:32:19;;;;;;;4.70;3.30;;;2.50;99.90;;;;;;5028542;28;20688;-60
2022/11/26 04:34:44;;;;;;;4.43;3.63;;;2.40;99.90;;;;;;5022132;28;20194;-60
2022/11/26 04:37:10;;;;;;;5.40;3.67;;;2.40;99.90;;;;;;5025488;28;20643;-59
2022/11/26 04:39:36;;;;;;;4.40;3.67;;;2.40;99.90;;;;;;5030328;28;20178;-60
2022/11/26 04:42:01;;;;;;;5.03;3.60;;;2.40;99.90;;;;;;5027066;28;20740;-59
2022/11/26 04:44:27;;;;;;;7.57;3.90;;;2.30;99.90;;;;;;5025361;28;20205;-59
2022/11/26 04:46:52;;;;;;;8.63;4.77;;;2.30;99.90;;;;;;5026586;28;20220;-60
2022/11/26 04:49:18;;;;;;;5.43;4.13;;;2.30;99.90;;;;;;5027990;28;20299;-60
2022/11/26 04:51:44;;;;;;;9.13;4.50;;;2.30;99.90;;;;;;5029079;28;20172;-60
2022/11/26 04:54:09;;;;;;;7.00;4.87;;;2.40;99.90;;;;;;5026055;22;20224;-58
2022/11/26 04:56:35;;;;;;;7.73;4.40;;;2.40;99.90;;;;;;4990857;28;20544;-58
2022/11/26 04:59:00;;;;;;;6.13;4.30;;;2.40;99.90;;;;;;4999973;28;20231;-57
2022/11/26 05:01:26;;;;;;;6.73;4.40;;;2.40;99.90;;;;;;4989894;28;20183;-57
2022/11/26 05:03:51;;;;;;;6.20;4.27;;;2.50;99.90;;;;;;4984060;28;20317;-57
2022/11/26 05:06:17;;;;;;;5.10;4.03;;;2.50;99.90;;;;;;4985477;28;20677;-57
2022/11/26 05:08:43;;;;;;;5.50;4.10;;;2.50;99.90;;;;;;4989468;28;20280;-57
2022/11/26 05:11:08;;;;;;;8.00;4.97;;;2.50;99.90;;;;;;4991775;28;20196;-56
2022/11/26 05:13:34;;;;;;;6.10;4.63;;;2.50;99.90;;;;;;4983061;28;20656;-57
2022/11/26 05:15:59;;;;;;;5.67;4.20;;;2.50;99.90;;;;;;4988665;28;20188;-57
2022/11/26 05:18:25;;;;;;;6.07;3.93;;;2.50;99.90;;;;;;4983181;28;20184;-57
2022/11/26 05:20:50;;;;;;;32.43;15.03;;;2.50;99.90;;;;;;4988186;28;20181;-57
2022/11/26 05:23:16;;;;;;;45.57;23.33;;;2.50;99.90;;;;;;4988292;28;20578;-57
2022/11/26 05:25:42;;;;;;;32.17;16.37;;;2.50;99.90;;;;;;4977551;28;20206;-57
2022/11/26 05:28:07;;;;;;;19.00;10.00;;;2.50;99.90;;;;;;4988279;28;20229;-57
2022/11/26 05:30:33;;;;;;;12.67;7.33;;;2.50;99.90;;;;;;4993073;28;20398;-58
2022/11/26 05:32:59;;;;;;;12.80;7.53;;;2.60;99.90;;;;;;4976745;28;20177;-58
2022/11/26 05:35:25;;;;;;;7.03;5.07;;;2.60;99.90;;;;;;4981062;28;20435;-56
2022/11/26 05:37:50;;;;;;;12.47;5.87;;;2.60;99.90;;;;;;4980365;28;20197;-59
2022/11/26 05:40:16;;;;;;;25.97;11.37;;;2.60;99.90;;;;;;4999219;28;20180;-58
2022/11/26 05:42:42;;;;;;;21.80;10.27;;;2.50;99.90;;;;;;4987648;28;20818;-57
2022/11/26 05:45:08;;;;;;;18.03;5.30;;;2.50;99.90;;;;;;4983080;28;20697;-57
2022/11/26 05:47:33;;;;;;;11.63;5.73;;;2.40;99.90;;;;;;4983156;28;20680;-57
2022/11/26 05:49:59;;;;;;;13.20;6.00;;;2.40;99.90;;;;;;4987551;28;20454;-56
2022/11/26 05:52:25;;;;;;;9.67;5.87;;;2.30;99.90;;;;;;4983890;28;20332;-57
2022/11/26 05:54:50;;;;;;;8.93;4.80;;;2.30;99.90;;;;;;4984390;28;20863;-57
2022/11/26 05:57:17;;;;;;;7.97;4.77;;;2.20;99.90;;;;;;4981157;28;20695;-57
2022/11/26 05:59:43;;;;;;;6.80;4.67;;;2.20;99.90;;;;;;4981868;28;20177;-57
2022/11/26 06:02:08;;;;;;;26.83;5.50;;;2.20;99.90;;;;;;4988890;28;20437;-55
2022/11/26 06:04:34;;;;;;;10.27;4.20;;;2.10;99.90;;;;;;4980394;28;20460;-57
2022/11/26 06:07:00;;;;;;;18.53;5.00;;;2.10;99.90;;;;;;4990601;28;20176;-58
2022/11/26 06:09:25;;;;;;;44.13;5.97;;;2.10;99.90;;;;;;4977171;28;20205;-58
2022/11/26 06:11:52;;;;;;;7.73;4.10;;;2.10;99.90;;;;;;4993799;28;20206;-59
2022/11/26 06:14:17;;;;;;;10.40;5.13;;;2.10;99.90;;;;;;4979108;28;20213;-58
2022/11/26 06:16:43;;;;;;;37.07;6.07;;;2.10;99.90;;;;;;4986305;28;20423;-59
2022/11/26 06:19:10;;;;;;;124.60;8.60;;;2.10;99.90;;;;;;4990810;28;20838;-59
2022/11/26 06:21:36;;;;;;;32.47;5.40;;;2.10;99.90;;;;;;4986008;28;21259;-59
2022/11/26 06:24:01;;;;;;;31.60;5.90;;;2.00;99.90;;;;;;4984759;28;20539;-59
2022/11/26 06:26:27;;;;;;;13.53;5.80;;;2.00;99.90;;;;;;4989912;28;20184;-59
2022/11/26 06:28:53;;;;;;;162.03;11.27;;;2.00;99.90;;;;;;4981417;28;20264;-59
2022/11/26 06:31:18;;;;;;;82.00;9.23;;;2.00;99.90;;;;;;4975152;28;20177;-58
2022/11/26 06:33:44;;;;;;;58.97;7.30;;;2.00;99.90;;;;;;4974801;28;20199;-58
2022/11/26 06:36:09;;;;;;;73.47;7.57;;;2.00;99.90;;;;;;4984470;28;20200;-58
2022/11/26 06:38:35;;;;;;;110.57;9.43;;;2.00;99.90;;;;;;4980446;28;20231;-58
2022/11/26 06:41:03;;;;;;;11.67;4.80;;;2.00;99.90;;;;;;4978531;28;20186;-59
2022/11/26 06:43:30;;;;;;;22.40;5.87;;;2.00;99.90;;;;;;4989519;28;20436;-59
2022/11/26 06:46:04;;;;;;;40.70;5.50;;;2.00;99.90;;;;;;4978141;28;20472;-59
2022/11/26 06:48:30;;;;;;;117.10;8.83;;;2.00;99.90;;;;;;4968994;28;20520;-58
2022/11/26 06:50:56;;;;;;;61.33;8.27;;;2.00;99.90;;;;;;4982242;28;20526;-59
2022/11/26 06:53:22;;;;;;;113.00;8.27;;;2.00;99.90;;;;;;4972792;28;20554;-59
2022/11/26 06:55:47;;;;;;;148.53;11.30;;;1.90;99.90;;;;;;4992728;28;20263;-59
2022/11/26 06:58:13;;;;;;;125.63;10.40;;;1.90;99.90;;;;;;4975682;28;20189;-56
2022/11/26 07:00:40;;;;;;;92.57;8.87;;;1.90;99.90;;;;;;4978279;28;20186;-58
2022/11/26 07:03:06;;;;;;;31.37;8.17;;;1.90;99.90;;;;;;4980202;28;20681;-59
2022/11/26 07:05:34;;;;;;;245.97;13.30;;;1.80;99.90;;;;;;4975973;28;21071;-59
2022/11/26 07:08:00;;;;;;;161.00;10.03;;;1.90;99.90;;;;;;4972734;28;20636;-59
2022/11/26 07:10:25;;;;;;;113.20;8.17;;;1.80;99.90;;;;;;4978154;28;20437;-58
2022/11/26 07:12:51;;;;;;;165.07;10.40;;;1.80;99.90;;;;;;4972309;28;20666;-57
2022/11/26 07:15:16;;;;;;;219.23;13.20;;;1.80;99.90;;;;;;4972633;28;20185;-58
2022/11/26 07:17:42;;;;;;;159.07;10.00;;;1.80;99.90;;;;;;4977738;28;20194;-56
2022/11/26 07:20:08;;;;;;;93.67;8.43;;;1.80;99.90;;;;;;4974795;28;20190;-57
2022/11/26 07:22:34;;;;;;;28.43;7.33;;;1.80;99.90;;;;;;4985015;28;20208;-61
2022/11/26 07:25:00;;;;;;;17.70;6.13;;;1.80;99.90;;;;;;4982020;28;20270;-57
2022/11/26 07:27:25;;;;;;;53.83;7.90;;;1.90;99.90;;;;;;4974761;28;20494;-59
2022/11/26 07:29:51;;;;;;;13.43;5.63;;;2.00;99.90;;;;;;4979537;28;20193;-58
2022/11/26 07:32:17;;;;;;;24.77;6.70;;;2.00;99.90;;;;;;4980044;28;20208;-58
2022/11/26 07:34:42;;;;;;;27.17;7.17;;;2.10;99.90;;;;;;4973095;28;20273;-61
2022/11/26 07:37:08;;;;;;;46.67;6.03;;;2.10;99.90;;;;;;4974967;28;20186;-60
2022/11/26 07:39:34;;;;;;;22.50;5.27;;;2.20;99.90;;;;;;4972409;28;20193;-55
2022/11/26 07:41:59;;;;;;;28.17;5.67;;;2.20;99.90;;;;;;4965453;28;20204;-55
2022/11/26 07:44:25;;;;;;;53.73;6.63;;;2.30;99.90;;;;;;4974969;28;20268;-56
2022/11/26 07:46:50;;;;;;;101.60;8.10;;;2.30;99.90;;;;;;4971836;28;21135;-58
2022/11/26 07:49:16;;;;;;;60.23;7.10;;;2.30;99.90;;;;;;4978470;28;20696;-61
2022/11/26 07:51:42;;;;;;;78.57;7.87;;;2.40;99.90;;;;;;4987823;28;20207;-62
2022/11/26 07:54:08;;;;;;;47.20;6.70;;;2.40;99.90;;;;;;4977727;28;20220;-61
2022/11/26 07:56:34;;;;;;;154.80;12.07;;;2.40;99.90;;;;;;4978692;28;20214;-61
2022/11/26 07:59:01;;;;;;;20.03;6.27;;;2.40;99.90;;;;;;4972565;28;20448;-61
2022/11/26 08:01:30;;;;;;;36.60;6.73;;;2.40;99.90;;;;;;4983181;28;20973;-61
2022/11/26 08:03:57;;;;;;;46.23;7.37;;;2.40;99.90;;;;;;4977874;28;20461;-58
2022/11/26 08:06:28;;;;;;;36.13;6.90;;;2.40;99.90;;;;;;4967505;28;20513;-60
2022/11/26 08:08:54;;;;;;;25.80;6.30;;;2.50;99.90;;;;;;4973913;28;20467;-60
2022/11/26 08:11:26;;;;;;;24.40;6.67;;;2.50;99.90;;;;;;4976431;28;20455;-61
2022/11/26 08:13:54;;;;;;;22.10;6.63;;;2.50;99.90;;;;;;4973866;28;20252;-60
2022/11/26 08:16:19;;;;;;;48.70;9.10;;;2.50;99.90;;;;;;4975023;28;20522;-60
2022/11/26 08:18:45;;;;;;;46.40;8.20;;;2.60;99.90;;;;;;4980063;28;20845;-60
2022/11/26 08:21:10;;;;;;;44.53;6.87;;;2.60;99.90;;;;;;4979675;28;20846;-59
2022/11/26 08:23:37;;;;;;;28.90;7.00;;;2.60;99.90;;;;;;4982512;28;20640;-60
2022/11/26 08:26:07;;;;;;;13.90;7.40;;;2.60;99.90;;;;;;4984641;28;20813;-61
2022/11/26 08:28:33;;;;;;;20.53;7.03;;;2.60;99.90;;;;;;4987889;28;20438;-61
2022/11/26 08:31:03;;;;;;;27.17;7.93;;;2.60;99.90;;;;;;4983800;28;20447;-60
2022/11/26 08:33:29;;;;;;;26.93;8.90;;;2.60;99.90;;;;;;4979556;28;20307;-59
2022/11/26 08:35:54;;;;;;;32.40;13.50;;;2.60;99.90;;;;;;4979740;28;20439;-60
2022/11/26 08:38:20;;;;;;;20.20;9.73;;;2.60;99.90;;;;;;4977509;28;20185;-59
2022/11/26 08:40:46;;;;;;;19.03;9.43;;;2.70;99.90;;;;;;4975285;28;20196;-60
2022/11/26 08:43:11;;;;;;;16.87;7.50;;;2.70;99.90;;;;;;4981651;28;20207;-60
2022/11/26 08:45:37;;;;;;;18.93;8.83;;;2.70;99.90;;;;;;4984578;28;20228;-60
2022/11/26 08:48:02;;;;;;;16.77;9.30;;;2.80;99.90;;;;;;4982818;28;20193;-60
2022/11/26 08:50:28;;;;;;;11.10;7.37;;;2.80;99.90;;;;;;4970203;28;20308;-59
2022/11/26 08:52:54;;;;;;;12.93;8.00;;;2.90;99.90;;;;;;4971322;28;20212;-60
2022/11/26 08:55:20;;;;;;;11.03;7.33;;;2.90;99.90;;;;;;4973523;28;20243;-60
2022/11/26 08:57:46;;;;;;;19.80;7.57;;;2.90;99.90;;;;;;4973030;28;20443;-59
2022/11/26 09:00:12;;;;;;;10.63;6.67;;;2.90;99.90;;;;;;4969032;28;20186;-59
2022/11/26 09:02:37;;;;;;;9.53;6.23;;;2.90;99.90;;;;;;4976930;28;20185;-58
2022/11/26 09:05:03;;;;;;;14.27;5.90;;;2.90;99.90;;;;;;4980402;28;20475;-60
2022/11/26 09:07:29;;;;;;;9.90;7.23;;;2.90;99.90;;;;;;4973051;28;20324;-62
2022/11/26 09:09:55;;;;;;;15.43;8.10;;;3.00;99.90;;;;;;4981336;28;20574;-59
2022/11/26 09:12:20;;;;;;;16.87;8.70;;;3.00;99.90;;;;;;4982651;28;20219;-60
2022/11/26 09:14:46;;;;;;;11.60;8.07;;;3.00;99.90;;;;;;4984907;28;20677;-58
2022/11/26 09:17:12;;;;;;;19.50;12.80;;;3.10;99.90;;;;;;4958832;28;20188;-60
2022/11/26 09:19:38;;;;;;;19.17;12.30;;;3.20;99.90;;;;;;4971413;28;20781;-58
2022/11/26 09:22:03;;;;;;;21.27;11.37;;;3.30;99.90;;;;;;4977589;28;20181;-58
2022/11/26 09:24:29;;;;;;;15.63;9.00;;;3.40;99.90;;;;;;4975544;28;20476;-57
2022/11/26 09:26:54;;;;;;;15.20;8.80;;;3.50;99.90;;;;;;4978080;28;20267;-60
2022/11/26 09:29:22;;;;;;;15.50;9.37;;;3.60;99.90;;;;;;4975027;28;20177;-60
2022/11/26 09:31:49;;;;;;;15.43;9.40;;;3.70;99.90;;;;;;4976245;28;20182;-59
2022/11/26 09:34:15;;;;;;;12.50;8.60;;;3.90;99.90;;;;;;4976598;28;20456;-60
2022/11/26 09:36:41;;;;;;;12.10;7.30;;;3.90;99.90;;;;;;4982128;28;20467;-59
2022/11/26 09:39:07;;;;;;;13.67;6.97;;;3.90;99.90;;;;;;4976255;28;20491;-58
2022/11/26 09:41:57;;;;;;;8.27;5.77;;;3.90;99.90;;;;;;4971496;28;20178;-57
2022/11/26 09:44:38;;;;;;;10.10;6.53;;;4.00;99.90;;;;;;4960817;28;20871;-58
2022/11/26 09:47:06;;;;;;;7.37;6.10;;;4.00;99.90;;;;;;4985319;28;20429;-57
2022/11/26 09:49:41;;;;;;;11.33;6.33;;;4.20;99.90;;;;;;4968868;28;20441;-58
2022/11/26 09:52:09;;;;;;;9.40;6.83;;;4.20;99.90;;;;;;4979550;28;20563;-58
2022/11/26 09:54:37;;;;;;;9.23;6.20;;;4.20;99.90;;;;;;4979909;28;20519;-56
2022/11/26 09:57:29;;;;;;;12.60;7.37;;;4.20;99.90;;;;;;4979776;28;20465;-57
2022/11/26 09:59:55;;;;;;;9.17;6.10;;;4.20;99.90;;;;;;4949899;28;20577;-58
2022/11/26 10:02:23;;;;;;;11.43;7.30;;;4.20;99.90;;;;;;4974314;28;20516;-57
2022/11/26 10:04:49;;;;;;;11.60;6.97;;;4.20;99.90;;;;;;4965512;28;20220;-57
2022/11/26 10:07:17;;;;;;;11.13;6.90;;;4.40;99.90;;;;;;4970965;28;20922;-58
2022/11/26 10:10:27;;;;;;;13.00;7.00;;;4.40;99.90;;;;;;4971838;28;20174;-52
2022/11/26 10:13:04;;;;;;;9.80;6.60;;;4.50;99.90;;;;;;4921711;28;20561;-58
2022/11/26 10:15:30;;;;;;;14.70;8.30;;;4.60;99.90;;;;;;4974945;28;20457;-58
2022/11/26 10:18:06;;;;;;;11.93;6.80;;;4.60;99.90;;;;;;4971879;28;20494;-57
2022/11/26 10:20:48;;;;;;;10.57;6.90;;;4.70;99.90;;;;;;4970342;28;20191;-57
2022/11/26 10:23:28;;;;;;;12.67;7.40;;;4.80;99.90;;;;;;4970764;28;20456;-58
2022/11/26 10:26:05;;;;;;;14.60;6.93;;;5.00;99.90;;;;;;4975084;28;20521;-54
2022/11/26 10:28:37;;;;;;;16.03;10.67;;;5.00;99.90;;;;;;4976809;28;21226;-59
2022/11/26 10:31:08;;;;;;;20.70;8.67;;;5.10;99.90;;;;;;4971395;28;20433;-59
2022/11/26 10:33:48;;;;;;;11.17;6.47;;;5.00;99.90;;;;;;4971609;28;20482;-58
2022/11/26 10:36:24;;;;;;;11.93;7.43;;;5.10;99.90;;;;;;4974999;28;20424;-59
2022/11/26 10:38:51;;;;;;;10.07;6.37;;;5.20;99.90;;;;;;4976332;28;20468;-56
2022/11/26 10:41:18;;;;;;;8.53;6.10;;;5.20;99.90;;;;;;4980121;28;20998;-59
2022/11/26 10:43:43;;;;;;;7.23;5.33;;;5.20;99.90;;;;;;4986962;28;20456;-58
2022/11/26 10:46:33;;;;;;;9.97;6.50;;;5.20;99.90;;;;;;4970719;28;20480;-57
2022/11/26 10:49:20;;;;;;;9.30;6.23;;;5.30;99.90;;;;;;4968400;28;20272;-59
2022/11/26 10:51:47;;;;;;;13.57;6.80;;;5.30;99.90;;;;;;4985332;28;20446;-58
2022/11/26 10:54:31;;;;;;;14.63;6.80;;;5.40;99.90;;;;;;4984110;28;20467;-59
2022/11/26 10:57:07;;;;;;;15.47;6.70;;;5.40;99.90;;;;;;4986522;28;20436;-57
2022/11/26 10:59:51;;;;;;;11.17;6.37;;;5.40;99.90;;;;;;4981898;28;20443;-59
2022/11/26 11:02:33;;;;;;;10.87;6.63;;;5.40;99.90;;;;;;4989926;28;21001;-59
2022/11/26 11:05:03;;;;;;;10.00;6.80;;;5.50;99.90;;;;;;4978392;28;20459;-58
2022/11/26 11:07:37;;;;;;;11.63;7.17;;;5.60;99.90;;;;;;4992702;22;20433;-58
2022/11/26 11:10:05;;;;;;;11.73;7.07;;;5.70;99.90;;;;;;5019254;28;20423;-60
2022/11/26 11:12:31;;;;;;;13.03;7.17;;;6.00;99.90;;;;;;5003026;28;20465;-59
2022/11/26 11:15:17;;;;;;;12.00;6.70;;;6.30;99.90;;;;;;5004692;28;21199;-60
2022/11/26 11:17:44;;;;;;;13.43;7.63;;;6.70;99.90;;;;;;5013292;28;20200;-60
2022/11/26 11:20:16;;;;;;;10.77;7.20;;;7.00;99.90;;;;;;4986381;28;20420;-59
2022/11/26 11:22:43;;;;;;;11.97;7.30;;;7.10;99.90;;;;;;4995610;28;20946;-60
2022/11/26 11:25:40;;;;;;;11.57;7.63;;;7.10;99.90;;;;;;5003461;28;20622;-59
2022/11/26 11:28:17;;;;;;;11.30;7.13;;;7.30;99.90;;;;;;4989452;28;20466;-59
2022/11/26 11:30:44;;;;;;;14.33;5.40;;;7.40;99.90;;;;;;5004532;28;20938;-59
2022/11/26 11:33:10;;;;;;;5.97;3.47;;;7.50;99.90;;;;;;5003494;28;20427;-59
2022/11/26 11:35:35;;;;;;;13.50;5.00;;;7.50;99.90;;;;;;4998169;28;20790;-60
2022/11/26 11:38:02;;;;;;;9.10;3.70;;;7.50;99.90;;;;;;4999471;28;20227;-59
2022/11/26 11:40:29;;;;;;;11.27;4.83;;;7.40;99.90;;;;;;5003911;28;20652;-59
2022/11/26 11:43:01;;;;;;;7.13;3.77;;;7.40;99.90;;;;;;5003013;28;20435;-59
2022/11/26 11:45:44;;;;;;;7.70;3.70;;;7.40;99.90;;;;;;5000276;28;22482;-60
2022/11/26 11:48:28;;;;;;;7.33;4.30;;;7.40;99.90;;;;;;5005283;28;20462;-59
2022/11/26 11:51:25;;;;;;;8.53;4.30;;;7.30;99.90;;;;;;5003454;28;20442;-61
2022/11/26 11:54:13;;;;;;;7.60;3.70;;;7.20;99.90;;;;;;4990645;28;20443;-59
2022/11/26 11:56:44;;;;;;;8.43;4.37;;;7.10;99.90;;;;;;4986470;28;20478;-59
2022/11/26 11:59:46;;;;;;;7.13;4.43;;;7.10;99.90;;;;;;5002098;28;20447;-59
2022/11/26 12:02:12;;;;;;;8.70;4.73;;;7.10;99.90;;;;;;5000212;28;20434;-60
2022/11/26 12:05:11;;;;;;;12.30;5.17;;;7.00;99.90;;;;;;5003880;28;20455;-59
2022/11/26 12:07:40;;;;;;;10.87;4.60;;;7.00;99.90;;;;;;5004405;28;20169;-59
2022/11/26 12:10:12;;;;;;;11.30;5.10;;;7.10;99.90;;;;;;5004819;28;20431;-60
2022/11/26 12:12:47;;;;;;;7.63;4.40;;;7.10;99.90;;;;;;5004796;28;20419;-60
2022/11/26 12:15:23;;;;;;;8.90;5.40;;;7.20;99.90;;;;;;5002533;28;20439;-60
2022/11/26 12:18:20;;;;;;;9.93;5.80;;;7.20;99.90;;;;;;5004555;28;20451;-59
2022/11/26 12:20:51;;;;;;;9.07;4.80;;;7.30;99.90;;;;;;4987453;28;20431;-59
2022/11/26 12:23:47;;;;;;;6.13;2.70;;;7.40;99.90;;;;;;4998643;28;20505;-59
2022/11/26 12:26:16;;;;;;;5.07;2.70;;;7.40;99.90;;;;;;5002087;28;20463;-61
2022/11/26 12:29:01;;;;;;;2.97;2.60;;;7.40;99.90;;;;;;4985993;28;20451;-60
2022/11/26 12:31:35;;;;;;;6.10;2.50;;;7.30;99.90;;;;;;5006166;28;20423;-60
2022/11/26 12:34:15;;;;;;;7.77;2.97;;;7.30;99.90;;;;;;5005395;28;21065;-60
2022/11/26 12:37:00;;;;;;;4.57;2.90;;;7.40;99.90;;;;;;5002191;28;20457;-59
2022/11/26 12:39:48;;;;;;;3.90;2.67;;;7.40;99.90;;;;;;5002390;28;20487;-60
2022/11/26 12:42:20;;;;;;;7.30;2.77;;;7.40;99.90;;;;;;4999996;28;20439;-59
2022/11/26 12:44:50;;;;;;;11.00;5.03;;;7.50;99.90;;;;;;5006479;28;20490;-59
2022/11/26 12:47:29;;;;;;;7.27;4.20;;;7.50;99.90;;;;;;5002897;28;20462;-59
2022/11/26 12:50:35;;;;;;;7.70;4.50;;;7.60;99.90;;;;;;5004093;28;20427;-60
2022/11/26 12:53:20;;;;;;;13.07;5.80;;;7.60;99.90;;;;;;4968989;28;20438;-61
2022/11/26 12:56:14;;;;;;;6.63;3.73;;;7.70;99.90;;;;;;5004088;28;20521;-59
2022/11/26 12:58:53;;;;;;;5.57;3.47;;;7.70;99.90;;;;;;5001673;28;20455;-59
2022/11/26 13:01:19;;;;;;;5.10;3.97;;;7.70;99.90;;;;;;4970551;28;21057;-60
2022/11/26 13:03:45;;;;;;;13.83;4.37;;;7.70;99.90;;;;;;5001803;28;20446;-55